Time;durP1;ratioP1;P1;durP2;ratioP2;P2;SDS_P1;SDS_P2;PMS_P1;PMS_P2;Temp;Humidity;BMP_temperature;BMP_pressure;BME280_temperature;BME280_humidity;BME280_pressure;Samples;Min_cycle;Max_cycle;Signal;HPM_P1;HPM_P2
2022/01/27 00:02:47;;;;;;;;;;;;;;;4.68;100.00;102604.72;5099142;28;19970;-81
2022/01/27 00:05:19;;;;;;;;;;;;;;;4.67;100.00;102590.75;5060834;28;20669;-81
2022/01/27 00:07:45;;;;;;;;;;;;;;;4.67;100.00;102590.75;5058114;28;19920;-82
2022/01/27 00:10:28;;;;;;;;;;;;;;;4.68;100.00;102592.56;5068389;28;20022;-80
2022/01/27 00:12:55;;;;;;;;;;;;;;;4.69;100.00;102588.25;5068507;28;20065;-80
2022/01/27 00:15:29;;;;;;;;;;;;;;;4.66;100.00;102588.00;5070989;28;20360;-80
2022/01/27 00:18:00;;;;;;;;;;;;;;;4.65;100.00;102587.09;5075415;28;19920;-80
2022/01/27 00:20:26;;;;;;;;;;;;;;;4.66;100.00;102580.16;5057501;28;20336;-80
2022/01/27 00:22:54;;;;;;;;;;;;;;;4.68;100.00;102579.53;5068113;28;19925;-81
2022/01/27 00:25:20;;;;;;;;;;;;;;;4.73;100.00;102576.41;5077117;28;20264;-81
2022/01/27 00:27:45;;;;;;;;;;;;;;;4.68;100.00;102579.53;5075085;28;19927;-81
2022/01/27 00:30:12;;;;;;;;;;;;;;;4.69;100.00;102564.78;5076933;28;19924;-80
2022/01/27 00:32:38;;;;;;;;;;;;;;;4.70;100.00;102571.84;5072536;28;19924;-80
2022/01/27 00:35:04;;;;;;;;;;;;;;;4.68;100.00;102578.63;5079925;28;19920;-80
2022/01/27 00:37:29;;;;;;;;;;;;;;;4.71;100.00;102580.56;5078457;28;19921;-80
2022/01/27 00:39:55;;;;;;;;;;;;;;;4.74;100.00;102584.38;5077104;28;19970;-81
2022/01/27 00:42:22;;;;;;;;;;;;;;;4.71;100.00;102562.31;5081493;28;19924;-80
2022/01/27 00:44:48;;;;;;;;;;;;;;;4.77;100.00;102565.44;5079008;28;19921;-81
2022/01/27 00:47:13;;;;;;;;;;;;;;;4.81;100.00;102573.66;5076220;28;19920;-80
2022/01/27 00:49:38;;;;;;;;;;;;;;;4.81;100.00;102565.84;5077395;28;19920;-80
2022/01/27 00:52:09;;;;;;;;;;;;;;;4.86;100.00;102566.25;5080665;28;19927;-79
2022/01/27 00:54:35;;;;;;;;;;;;;;;4.93;100.00;102573.84;5094578;28;20479;-80
2022/01/27 00:57:10;;;;;;;;;;;;;;;4.93;100.00;102566.00;5069931;28;19964;-80
2022/01/27 00:59:46;;;;;;;;;;;;;;;5.02;100.00;102572.00;5080469;28;19920;-80
2022/01/27 01:05:02;;;;;;;;;;;;;;;5.06;100.00;102567.06;5098655;28;19927;-80
2022/01/27 01:07:32;;;;;;;;;;;;;;;5.09;100.00;102564.72;5077716;28;20383;-78
2022/01/27 01:15:21;;;;;;;;;;;;;;;5.12;100.00;102538.84;5095730;28;19926;-80
2022/01/27 01:20:53;;;;;;;;;;;;;;;5.17;100.00;102511.44;5077918;28;19930;-78
2022/01/27 01:31:45;;;;;;;;;;;;;;;5.10;100.00;102498.66;5097086;28;19978;-79
2022/01/27 01:36:48;;;;;;;;;;;;;;;5.14;100.00;102508.56;5076930;28;19962;-80
2022/01/27 01:39:13;;;;;;;;;;;;;;;5.13;100.00;102486.75;5051269;28;19927;-81
2022/01/27 01:41:41;;;;;;;;;;;;;;;5.11;100.00;102479.56;5058739;28;22043;-80
2022/01/27 01:44:07;;;;;;;;;;;;;;;5.06;100.00;102489.63;5077086;28;19974;-80
2022/01/27 01:46:33;;;;;;;;;;;;;;;5.06;100.00;102475.66;5058232;28;20015;-81
2022/01/27 01:48:58;;;;;;;;;;;;;;;5.02;100.00;102485.84;5060548;28;19928;-81
2022/01/27 01:51:25;;;;;;;;;;;;;;;4.97;100.00;102475.78;5058491;28;20323;-80
2022/01/27 01:53:55;;;;;;;;;;;;;;;4.88;100.00;102472.41;5058738;28;19921;-80
2022/01/27 01:56:21;;;;;;;;;;;;;;;4.84;100.00;102471.25;5050969;28;19990;-81
2022/01/27 01:58:46;;;;;;;;;;;;;;;4.78;100.00;102479.44;5052470;28;19921;-79
2022/01/27 02:01:12;;;;;;;;;;;;;;;4.71;100.00;102479.72;5058835;28;19920;-78
2022/01/27 02:03:40;;;;;;;;;;;;;;;4.64;100.00;102483.47;5047015;28;20304;-79
2022/01/27 02:06:11;;;;;;;;;;;;;;;4.63;100.00;102466.03;5038499;28;20072;-80
2022/01/27 02:08:50;;;;;;;;;;;;;;;4.61;100.00;102480.59;5049233;28;19920;-79
2022/01/27 02:19:29;;;;;;;;;;;;;;;4.56;100.00;102463.66;5076163;28;19958;-80
2022/01/27 02:22:01;;;;;;;;;;;;;;;4.53;100.00;102457.28;5045037;28;19925;-80
2022/01/27 02:24:31;;;;;;;;;;;;;;;4.55;100.00;102460.91;5038161;28;19923;-80
2022/01/27 02:26:57;;;;;;;;;;;;;;;4.56;100.00;102484.53;5074057;28;19928;-79
2022/01/27 02:29:23;;;;;;;;;;;;;;;4.59;100.00;102468.22;5053071;28;19916;-81
2022/01/27 02:31:51;;;;;;;;;;;;;;;4.53;100.00;102458.16;5045192;28;19927;-81
2022/01/27 02:34:16;;;;;;;;;;;;;;;4.50;100.00;102476.16;5054118;28;19928;-81
2022/01/27 02:36:41;;;;;;;;;;;;;;;4.49;100.00;102476.97;5064290;28;19924;-81
2022/01/27 02:39:08;;;;;;;;;;;;;;;4.49;100.00;102454.41;5076078;28;19921;-80
2022/01/27 02:41:57;;;;;;;;;;;;;;;4.46;100.00;102467.19;5078792;28;20232;-80
2022/01/27 02:44:33;;;;;;;;;;;;;;;4.50;100.00;102460.50;5072944;28;19955;-80
2022/01/27 02:46:58;;;;;;;;;;;;;;;4.50;100.00;102465.72;5075521;28;19924;-80
2022/01/27 02:49:24;;;;;;;;;;;;;;;4.52;100.00;102464.16;5073874;28;19978;-81
2022/01/27 02:51:49;;;;;;;;;;;;;;;4.54;100.00;102454.78;5074930;28;19966;-81
2022/01/27 02:54:15;;;;;;;;;;;;;;;4.54;100.00;102456.47;5075120;28;19982;-82
2022/01/27 02:56:44;;;;;;;;;;;;;;;4.58;100.00;102435.09;5075634;28;19921;-80
2022/01/27 02:59:10;;;;;;;;;;;;;;;4.61;100.00;102433.66;5075647;28;20007;-81
2022/01/27 03:01:35;;;;;;;;;;;;;;;4.65;100.00;102437.44;5074505;28;19978;-81
2022/01/27 03:04:05;;;;;;;;;;;;;;;4.60;100.00;102423.06;5070992;28;19925;-81
2022/01/27 03:06:30;;;;;;;;;;;;;;;4.57;100.00;102417.59;5070114;28;19920;-80
2022/01/27 03:08:55;;;;;;;;;;;;;;;4.51;100.00;102407.56;5057307;28;19927;-81
2022/01/27 03:11:35;;;;;;;;;;;;;;;4.45;100.00;102394.00;5075802;28;19921;-80
2022/01/27 03:14:09;;;;;;;;;;;;;;;4.37;100.00;102387.22;5072108;28;20369;-81
2022/01/27 03:16:34;;;;;;;;;;;;;;;4.31;100.00;102393.72;5073999;28;20367;-80
2022/01/27 03:18:59;;;;;;;;;;;;;;;4.28;100.00;102387.34;5066077;28;19916;-81
2022/01/27 03:21:24;;;;;;;;;;;;;;;4.20;100.00;102384.06;5076003;28;19950;-81
2022/01/27 03:23:50;;;;;;;;;;;;;;;4.20;100.00;102376.25;5074443;28;19920;-81
2022/01/27 03:26:15;;;;;;;;;;;;;;;4.15;100.00;102374.94;5075580;28;19923;-82
2022/01/27 03:28:40;;;;;;;;;;;;;;;4.11;100.00;102376.34;5074720;28;19921;-81
2022/01/27 03:31:05;;;;;;;;;;;;;;;4.09;100.00;102374.41;5074544;28;19920;-80
2022/01/27 03:33:32;;;;;;;;;;;;;;;4.01;100.00;102360.72;5062667;28;19924;-81
2022/01/27 03:35:57;;;;;;;;;;;;;;;4.01;100.00;102360.72;5062600;28;19943;-80
2022/01/27 03:38:22;;;;;;;;;;;;;;;3.99;100.00;102356.13;5043606;28;19924;-81
2022/01/27 03:40:47;;;;;;;;;;;;;;;3.98;100.00;102351.69;5069943;28;19963;-81
2022/01/27 03:43:20;;;;;;;;;;;;;;;4.02;100.00;102354.69;5060568;28;19962;-81
2022/01/27 03:45:45;;;;;;;;;;;;;;;3.99;100.00;102344.00;5063982;28;20353;-81
2022/01/27 03:48:12;;;;;;;;;;;;;;;3.94;100.00;102353.13;5065212;28;19947;-81
2022/01/27 03:50:37;;;;;;;;;;;;;;;3.96;100.00;102351.56;5064448;28;19955;-81
2022/01/27 03:53:04;;;;;;;;;;;;;;;3.93;100.00;102340.88;5065472;28;20280;-80
2022/01/27 03:55:30;;;;;;;;;;;;;;;4.00;100.00;102335.44;5073758;28;19921;-81
2022/01/27 03:57:55;;;;;;;;;;;;;;;4.01;100.00;102324.22;5077014;28;19953;-79
2022/01/27 04:00:20;;;;;;;;;;;;;;;4.14;100.00;102336.59;5077255;28;19931;-80
2022/01/27 04:02:56;;;;;;;;;;;;;;;4.19;100.00;102330.09;5077144;28;20253;-79
2022/01/27 04:05:22;;;;;;;;;;;;;;;4.20;100.00;102321.50;5073750;28;19924;-81
2022/01/27 04:07:47;;;;;;;;;;;;;;;4.27;100.00;102310.81;5076381;28;19926;-80
2022/01/27 04:10:12;;;;;;;;;;;;;;;4.26;100.00;102321.13;5060258;28;20316;-81
2022/01/27 04:12:39;;;;;;;;;;;;;;;4.28;100.00;102310.00;5077340;28;19999;-81
2022/01/27 04:15:04;;;;;;;;;;;;;;;4.35;100.00;102316.69;5078318;28;19921;-81
2022/01/27 04:17:30;;;;;;;;;;;;;;;4.38;100.00;102316.94;5077636;28;19920;-81
2022/01/27 04:19:55;;;;;;;;;;;;;;;4.46;100.00;102328.03;5063325;28;20041;-80
2022/01/27 04:22:22;;;;;;;;;;;;;;;4.52;100.00;102330.22;5071255;28;19955;-81
2022/01/27 04:24:48;;;;;;;;;;;;;;;4.62;100.00;102320.66;5066845;28;19921;-80
2022/01/27 04:27:19;;;;;;;;;;;;;;;4.71;100.00;102303.94;5063675;28;20023;-81
2022/01/27 04:29:45;;;;;;;;;;;;;;;4.78;100.00;102303.69;5078181;28;19927;-80
2022/01/27 04:32:13;;;;;;;;;;;;;;;4.85;100.00;102312.16;5069154;28;19921;-80
2022/01/27 04:34:41;;;;;;;;;;;;;;;4.92;100.00;102312.66;5076207;28;20284;-81
2022/01/27 04:37:09;;;;;;;;;;;;;;;4.96;100.00;102305.19;5074112;28;19925;-81
2022/01/27 04:39:53;;;;;;;;;;;;;;;4.97;100.00;102301.81;5073944;28;20015;-80
2022/01/27 04:45:38;;;;;;;;;;;;;;;5.07;100.00;102294.72;5054961;28;19921;-80
2022/01/27 04:48:12;;;;;;;;;;;;;;;5.07;100.00;102281.69;5063609;28;20318;-82
2022/01/27 04:50:38;;;;;;;;;;;;;;;5.10;100.00;102288.03;5071130;28;20018;-80
2022/01/27 04:53:29;;;;;;;;;;;;;;;5.18;100.00;102278.22;5076281;28;20373;-79
2022/01/27 04:55:59;;;;;;;;;;;;;;;5.22;100.00;102283.81;5075655;28;19921;-79
2022/01/27 04:58:31;;;;;;;;;;;;;;;5.26;100.00;102289.28;5062214;28;19920;-80
2022/01/27 05:00:59;;;;;;;;;;;;;;;5.29;100.00;102284.31;5073113;28;19917;-80
2022/01/27 05:03:49;;;;;;;;;;;;;;;5.28;100.00;102280.75;5076711;28;20324;-80
2022/01/27 05:06:14;;;;;;;;;;;;;;;5.32;100.00;102293.28;5064912;28;19917;-81
2022/01/27 05:08:41;;;;;;;;;;;;;;;5.37;100.00;102286.72;5056607;28;20383;-79
2022/01/27 05:11:13;;;;;;;;;;;;;;;5.39;100.00;102293.00;5076825;28;19920;-80
2022/01/27 05:13:51;;;;;;;;;;;;;;;5.46;100.00;102276.09;5077094;28;19920;-80
2022/01/27 05:16:16;;;;;;;;;;;;;;;5.48;100.00;102273.63;5076337;28;20321;-79
2022/01/27 05:18:41;;;;;;;;;;;;;;;5.56;100.00;102275.13;5076482;28;19929;-79
2022/01/27 05:21:07;;;;;;;;;;;;;;;5.57;100.00;102272.63;5078780;28;19917;-80
2022/01/27 05:23:36;;;;;;;;;;;;;;;5.66;100.00;102267.22;5075614;28;20032;-81
2022/01/27 05:26:01;;;;;;;;;;;;;;;5.75;100.00;102277.50;5095094;28;20551;-81
2022/01/27 05:28:26;;;;;;;;;;;;;;;5.70;100.00;102264.09;5098567;28;19924;-82
2022/01/27 05:30:52;;;;;;;;;;;;;;;5.71;100.00;102265.88;5082012;28;19927;-79
2022/01/27 05:33:18;;;;;;;;;;;;;;;5.78;100.00;102261.13;5076420;28;19932;-78
2022/01/27 05:35:45;;;;;;;;;;;;;;;5.81;100.00;102266.59;5072380;28;20276;-80
2022/01/27 05:38:12;;;;;;;;;;;;;;;5.80;100.00;102260.47;5078650;28;19977;-80
2022/01/27 05:40:37;;;;;;;;;;;;;;;5.82;100.00;102250.13;5095252;28;19916;-80
2022/01/27 05:43:03;;;;;;;;;;;;;;;5.82;100.00;102250.13;5091445;28;20395;-80
2022/01/27 05:45:28;;;;;;;;;;;;;;;5.87;100.00;102254.94;5074389;28;19939;-81
2022/01/27 05:47:54;;;;;;;;;;;;;;;5.90;100.00;102249.94;5076395;28;19928;-81
2022/01/27 05:50:19;;;;;;;;;;;;;;;5.86;100.00;102239.13;5076546;28;19928;-80
2022/01/27 05:52:45;;;;;;;;;;;;;;;5.84;100.00;102236.41;5082832;28;19927;-80
2022/01/27 05:55:10;;;;;;;;;;;;;;;5.89;100.00;102244.59;5096122;28;20023;-81
2022/01/27 05:57:36;;;;;;;;;;;;;;;5.95;100.00;102224.16;5094306;28;19955;-80
2022/01/27 06:00:01;;;;;;;;;;;;;;;5.93;100.00;102234.50;5076628;28;19986;-81
2022/01/27 06:02:28;;;;;;;;;;;;;;;5.90;100.00;102233.34;5074716;28;19955;-80
2022/01/27 06:04:54;;;;;;;;;;;;;;;5.96;100.00;102225.97;5074731;28;20364;-80
2022/01/27 06:07:19;;;;;;;;;;;;;;;6.01;100.00;102221.13;5075262;28;19983;-79
2022/01/27 06:09:44;;;;;;;;;;;;;;;6.08;100.00;102220.81;5074366;28;20369;-79
2022/01/27 06:12:12;;;;;;;;;;;;;;;6.09;100.00;102231.38;5074193;28;19927;-79
2022/01/27 06:14:39;;;;;;;;;;;;;;;6.14;100.00;102216.03;5074697;28;19921;-77
2022/01/27 06:17:04;;;;;;;;;;;;;;;6.16;100.00;102227.50;5074035;28;19938;-79
2022/01/27 06:19:30;;;;;;;;;;;;;;;6.18;100.00;102222.41;5072880;28;19995;-78
2022/01/27 06:21:56;;;;;;;;;;;;;;;6.18;100.00;102222.41;5066643;28;19960;-79
2022/01/27 06:24:21;;;;;;;;;;;;;;;6.18;100.00;102225.00;5093805;28;19927;-79
2022/01/27 06:26:48;;;;;;;;;;;;;;;6.18;100.00;102214.56;5091666;28;19920;-79
2022/01/27 06:29:14;;;;;;;;;;;;;;;6.20;100.00;102213.88;5094562;28;20352;-79
2022/01/27 06:31:39;;;;;;;;;;;;;;;6.23;100.00;102208.88;5077396;28;19982;-80
2022/01/27 06:34:05;;;;;;;;;;;;;;;6.23;100.00;102214.13;5076791;28;19924;-79
2022/01/27 06:36:32;;;;;;;;;;;;;;;6.23;100.00;102207.94;5094874;28;20018;-79
2022/01/27 06:38:57;;;;;;;;;;;;;;;6.30;100.00;102207.63;5060356;28;19956;-80
2022/01/27 06:41:22;;;;;;;;;;;;;;;6.35;100.00;102206.25;5076476;28;19927;-80
2022/01/27 06:43:58;;;;;;;;;;;;;;;6.31;100.00;102204.22;5095019;28;20273;-79
2022/01/27 06:46:25;;;;;;;;;;;;;;;6.29;100.00;102206.72;5074907;28;20337;-80
2022/01/27 06:48:50;;;;;;;;;;;;;;;6.38;100.00;102205.59;5058166;28;19985;-79
2022/01/27 06:51:15;;;;;;;;;;;;;;;6.32;100.00;102208.63;5056740;28;20352;-78
2022/01/27 06:53:41;;;;;;;;;;;;;;;6.32;100.00;102208.63;5057476;28;19932;-79
2022/01/27 06:56:07;;;;;;;;;;;;;;;6.37;100.00;102212.53;5064492;28;19927;-79
2022/01/27 06:58:34;;;;;;;;;;;;;;;6.35;100.00;102219.34;5056717;28;19924;-79
2022/01/27 07:01:02;;;;;;;;;;;;;;;6.35;100.00;102216.72;5056544;28;20721;-80
2022/01/27 07:03:37;;;;;;;;;;;;;;;6.34;100.00;102214.91;5036957;28;19921;-80
2022/01/27 07:06:02;;;;;;;;;;;;;;;6.38;100.00;102226.53;5028810;28;19931;-79
2022/01/27 07:08:28;;;;;;;;;;;;;;;6.40;100.00;102230.16;5078938;28;19920;-80
2022/01/27 07:10:53;;;;;;;;;;;;;;;6.40;100.00;102236.31;5066039;28;19928;-78
2022/01/27 07:13:19;;;;;;;;;;;;;;;6.41;100.00;102226.75;5032948;28;19958;-79
2022/01/27 07:15:57;;;;;;;;;;;;;;;6.43;100.00;102231.31;5032078;28;19963;-80
2022/01/27 07:18:23;;;;;;;;;;;;;;;6.37;100.00;102237.78;5036542;28;20437;-81
2022/01/27 07:20:49;;;;;;;;;;;;;;;6.30;100.00;102244.25;5036590;28;19925;-82
2022/01/27 07:23:16;;;;;;;;;;;;;;;6.24;100.00;102243.78;5065166;28;20054;-82
2022/01/27 07:25:58;;;;;;;;;;;;;;;6.17;100.00;102246.72;5074837;28;20343;-81
2022/01/27 07:28:44;;;;;;;;;;;;;;;6.10;100.00;102241.03;5059490;28;20008;-81
2022/01/27 07:31:29;;;;;;;;;;;;;;;6.07;100.00;102251.25;5074080;28;19967;-80
2022/01/27 07:34:17;;;;;;;;;;;;;;;6.03;100.00;102248.28;5066596;28;19931;-80
2022/01/27 07:37:06;;;;;;;;;;;;;;;5.98;100.00;102242.72;5066223;28;19920;-80
2022/01/27 07:39:33;;;;;;;;;;;;;;;5.98;100.00;102234.88;5015496;28;19948;-80
2022/01/27 07:42:29;;;;;;;;;;;;;;;5.96;100.00;102235.50;5029534;28;20396;-81
2022/01/27 07:45:05;;;;;;;;;;;;;;;5.94;100.00;102233.69;5011279;28;20305;-79
2022/01/27 07:48:13;;;;;;;;;;;;;;;5.95;100.00;102239.84;5029877;28;19964;-79
2022/01/27 07:51:17;;;;;;;;;;;;;;;5.99;100.00;102241.91;5031668;28;19921;-79
2022/01/27 07:53:50;;;;;;;;;;;;;;;5.97;100.00;102247.84;5028894;28;19921;-79
2022/01/27 07:56:26;;;;;;;;;;;;;;;6.01;100.00;102244.66;5000188;28;19998;-80
2022/01/27 07:58:57;;;;;;;;;;;;;;;6.03;100.00;102245.66;5031323;28;19925;-80
2022/01/27 08:01:31;;;;;;;;;;;;;;;6.03;100.00;102236.13;5015157;28;20420;-80
2022/01/27 08:03:58;;;;;;;;;;;;;;;6.03;100.00;102254.44;4996549;28;19925;-79
2022/01/27 08:07:08;;;;;;;;;;;;;;;6.03;100.00;102249.22;5031717;28;19921;-80
2022/01/27 08:10:14;;;;;;;;;;;;;;;6.01;100.00;102261.28;5040975;28;19935;-79
2022/01/27 08:13:21;;;;;;;;;;;;;;;6.02;100.00;102260.47;5053425;28;19954;-80
2022/01/27 08:16:33;;;;;;;;;;;;;;;6.05;100.00;102255.47;5072216;28;20570;-78
2022/01/27 08:19:20;;;;;;;;;;;;;;;6.07;100.00;102253.88;5083013;28;19920;-78
2022/01/27 08:21:48;;;;;;;;;;;;;;;6.11;100.00;102262.88;5061723;28;19975;-80
2022/01/27 08:24:58;;;;;;;;;;;;;;;6.07;100.00;102253.88;5066564;28;20006;-80
2022/01/27 08:27:58;;;;;;;;;;;;;;;6.10;100.00;102263.66;5073206;28;19921;-79
2022/01/27 08:30:59;;;;;;;;;;;;;;;6.09;100.00;102262.75;5074126;28;19927;-80
2022/01/27 08:33:29;;;;;;;;;;;;;;;6.11;100.00;102253.31;5073156;28;19921;-79
2022/01/27 08:35:55;;;;;;;;;;;;;;;6.15;100.00;102257.06;5059649;28;19925;-80
2022/01/27 08:38:20;;;;;;;;;;;;;;;6.16;100.00;102250.16;5071975;28;19940;-80
2022/01/27 08:40:45;;;;;;;;;;;;;;;6.17;100.00;102252.88;5091153;28;19927;-80
2022/01/27 08:43:12;;;;;;;;;;;;;;;6.16;100.00;102260.63;5092471;28;19993;-80
2022/01/27 08:45:39;;;;;;;;;;;;;;;6.16;100.00;102256.28;5083083;28;19981;-80
2022/01/27 08:48:05;;;;;;;;;;;;;;;6.22;100.00;102250.63;5059266;28;20005;-80
2022/01/27 08:50:30;;;;;;;;;;;;;;;6.25;100.00;102248.25;5072590;28;20339;-81
2022/01/27 08:52:57;;;;;;;;;;;;;;;6.25;100.00;102240.38;5074718;28;19928;-80
2022/01/27 08:55:23;;;;;;;;;;;;;;;6.27;100.00;102147.22;5088274;28;19963;-79
2022/01/27 08:57:50;;;;;;;;;;;;;;;6.28;100.00;102134.25;5087580;28;19924;-80
2022/01/27 09:00:19;;;;;;;;;;;;;;;6.30;100.00;102144.84;5090948;28;20379;-80
2022/01/27 09:02:49;;;;;;;;;;;;;;;6.31;100.00;102144.06;5084580;28;19921;-80
2022/01/27 09:05:14;;;;;;;;;;;;;;;6.28;100.00;102149.97;5094483;28;20276;-80
2022/01/27 09:07:40;;;;;;;;;;;;;;;6.28;100.00;102156.91;5094991;28;19920;-80
2022/01/27 09:10:06;;;;;;;;;;;;;;;6.30;100.00;102152.69;5096078;28;20376;-80
2022/01/27 09:12:32;;;;;;;;;;;;;;;6.32;100.00;102144.97;5086920;28;19951;-80
2022/01/27 09:14:59;;;;;;;;;;;;;;;6.32;100.00;102155.41;5075352;28;19927;-80
2022/01/27 09:17:26;;;;;;;;;;;;;;;6.34;100.00;102152.13;5093246;28;19921;-80
2022/01/27 09:19:52;;;;;;;;;;;;;;;6.36;100.00;102137.44;5080074;28;19926;-80
2022/01/27 09:22:20;;;;;;;;;;;;;;;6.37;100.00;102134.03;5081600;28;19923;-79
2022/01/27 09:24:55;;;;;;;;;;;;;;;6.36;100.00;102139.16;5074804;28;19920;-79
2022/01/27 09:27:21;;;;;;;;;;;;;;;6.38;100.00;102128.00;5086917;28;20376;-80
2022/01/27 09:29:47;;;;;;;;;;;;;;;6.42;100.00;102130.03;5080753;28;19920;-78
2022/01/27 09:32:14;;;;;;;;;;;;;;;6.47;100.00;102123.44;5077390;28;19927;-79
2022/01/27 09:34:39;;;;;;;;;;;;;;;6.49;100.00;102130.50;5075929;28;19920;-79
2022/01/27 09:37:05;;;;;;;;;;;;;;;6.51;100.00;102131.50;5075593;28;19920;-79
2022/01/27 09:39:31;;;;;;;;;;;;;;;6.52;100.00;102133.34;5077578;28;19927;-79
2022/01/27 09:41:58;;;;;;;;;;;;;;;6.60;100.00;102140.97;5083368;28;20276;-79
2022/01/27 09:44:28;;;;;;;;;;;;;;;6.65;100.00;102141.28;5080871;28;19921;-79
2022/01/27 09:46:56;;;;;;;;;;;;;;;6.71;100.00;102146.03;5095222;28;19960;-78
2022/01/27 09:49:35;;;;;;;;;;;;;;;6.75;100.00;102145.47;5090163;28;19945;-79
2022/01/27 09:52:08;;;;;;;;;;;;;;;6.80;100.00;102142.38;5094583;28;20501;-78
2022/01/27 09:54:37;;;;;;;;;;;;;;;6.80;100.00;102158.06;5075735;28;20241;-81
2022/01/27 09:57:26;;;;;;;;;;;;;;;6.79;100.00;102148.44;5075980;28;20468;-79
2022/01/27 09:59:52;;;;;;;;;;;;;;;6.84;100.00;102151.38;5090619;28;19946;-79
2022/01/27 10:02:26;;;;;;;;;;;;;;;6.80;100.00;102150.22;5074954;28;19925;-80
2022/01/27 10:05:08;;;;;;;;;;;;;;;6.88;100.00;102156.00;5083444;28;20004;-79
2022/01/27 10:07:42;;;;;;;;;;;;;;;6.88;100.00;102148.16;5082049;28;19956;-79
2022/01/27 10:10:16;;;;;;;;;;;;;;;6.95;100.00;102142.56;5092648;28;19920;-78
2022/01/27 10:12:53;;;;;;;;;;;;;;;7.04;100.00;102130.91;5092122;28;20076;-79
2022/01/27 10:15:21;;;;;;;;;;;;;;;7.04;100.00;102144.94;5088972;28;20387;-79
2022/01/27 10:18:05;;;;;;;;;;;;;;;7.05;100.00;102144.13;5094266;28;19954;-79
2022/01/27 10:20:55;;;;;;;;;;;;;;;7.06;100.00;102143.34;5094523;28;19927;-79
2022/01/27 10:23:41;;;;;;;;;;;;;;;7.04;100.00;102141.41;5088174;28;19968;-79
2022/01/27 10:26:22;;;;;;;;;;;;;;;7.15;100.00;102146.59;5090139;28;19924;-79
2022/01/27 10:29:08;;;;;;;;;;;;;;;7.13;100.00;102144.66;5093975;28;19934;-78
2022/01/27 10:31:35;;;;;;;;;;;;;;;7.16;100.00;102151.06;5093086;28;20512;-79
2022/01/27 10:34:21;;;;;;;;;;;;;;;7.17;100.00;102145.00;5088304;28;20356;-79
2022/01/27 10:36:55;;;;;;;;;;;;;;;7.16;100.00;102151.06;5067834;28;19927;-78
2022/01/27 10:39:20;;;;;;;;;;;;;;;7.16;100.00;102155.38;5075267;28;19920;-79
2022/01/27 10:42:05;;;;;;;;;;;;;;;7.18;100.00;102144.19;5076471;28;19942;-79
2022/01/27 10:44:42;;;;;;;;;;;;;;;7.20;100.00;102146.94;5093878;28;19927;-78
2022/01/27 10:47:33;;;;;;;;;;;;;;;7.27;100.00;102136.09;5060205;28;20385;-77
2022/01/27 10:50:05;;;;;;;;;;;;;;;7.32;100.00;102136.41;5080223;28;19920;-84
2022/01/27 10:52:49;;;;;;;;;;;;;;;7.34;100.00;102137.41;5060021;28;19931;-80
2022/01/27 10:55:33;;;;;;;;;;;;;;;7.43;100.00;102135.44;5090265;28;19924;-79
2022/01/27 10:58:00;;;;;;;;;;;;;;;7.44;100.00;102142.50;5093887;28;19920;-79
2022/01/27 11:00:31;;;;;;;;;;;;;;;7.42;100.00;102144.09;5058291;28;20014;-79
2022/01/27 11:03:02;;;;;;;;;;;;;;;7.43;100.00;102143.31;5094086;28;19920;-79
2022/01/27 11:05:42;;;;;;;;;;;;;;;7.42;100.00;102149.34;5075785;28;19936;-79
2022/01/27 11:08:10;;;;;;;;;;;;;;;7.48;100.00;102155.00;5057566;28;20305;-79
2022/01/27 11:10:36;;;;;;;;;;;;;;;7.54;100.00;102150.19;5091574;28;19993;-79
2022/01/27 11:13:05;;;;;;;;;;;;;;;7.58;100.00;102146.06;5058286;28;19928;-78
2022/01/27 11:15:33;;;;;;;;;;;;;;;7.58;100.00;102142.53;5074815;28;20574;-79
2022/01/27 11:17:59;;;;;;;;;;;;;;;7.64;100.00;102135.09;5093964;28;20441;-79
2022/01/27 11:20:47;;;;;;;;;;;;;;;7.65;100.00;102127.34;5075188;28;19924;-75
2022/01/27 11:23:45;;;;;;;;;;;;;;;7.68;100.00;102124.03;5071503;28;19972;-79
2022/01/27 11:26:10;;;;;;;;;;;;;;;7.72;100.00;102112.91;5091720;28;20280;-80
2022/01/27 11:28:37;;;;;;;;;;;;;;;7.74;100.00;102119.19;5075920;28;19920;-79
2022/01/27 11:31:15;;;;;;;;;;;;;;;7.84;100.00;102111.13;5075934;28;19928;-76
2022/01/27 11:33:58;;;;;;;;;;;;;;;7.81;100.00;102118.78;5075025;28;19962;-77
2022/01/27 11:36:24;;;;;;;;;;;;;;;7.85;100.00;102118.19;5050197;28;19925;-77
2022/01/27 11:38:50;;;;;;;;;;;;;;;7.86;100.00;102132.22;5072225;28;19927;-77
2022/01/27 11:41:35;;;;;;;;;;;;;;;7.92;100.00;102111.63;5071216;28;19924;-77
2022/01/27 11:44:20;;;;;;;;;;;;;;;7.97;100.00;102120.75;5070557;28;19917;-76
2022/01/27 11:47:04;;;;;;;;;;;;;;;8.01;100.00;102111.34;5069693;28;19975;-75
2022/01/27 11:49:45;;;;;;;;;;;;;;;8.02;100.00;102106.22;5053181;28;19986;-76
2022/01/27 11:52:20;;;;;;;;;;;;;;;8.17;100.00;102122.06;5062108;28;19921;-79
2022/01/27 11:54:46;;;;;;;;;;;;;;;8.31;100.00;102119.41;5072605;28;19963;-79
2022/01/27 11:57:30;;;;;;;;;;;;;;;8.38;100.00;102130.41;5055216;28;19960;-79
2022/01/27 12:00:07;;;;;;;;;;;;;;;8.48;100.00;102117.94;5068734;28;19920;-79
2022/01/27 12:02:52;;;;;;;;;;;;;;;8.53;100.00;102127.00;5062739;28;19921;-80
2022/01/27 12:05:18;;;;;;;;;;;;;;;8.53;100.00;102133.19;5053336;28;19921;-80
2022/01/27 12:08:03;;;;;;;;;;;;;;;8.53;100.00;102125.31;5056438;28;19921;-79
2022/01/27 12:10:38;;;;;;;;;;;;;;;8.56;100.00;102125.50;5054880;28;19960;-80
2022/01/27 12:19:00;;;;;;;;;;;;;;;8.38;100.00;102114.69;5097471;28;19950;-80
2022/01/27 12:21:29;;;;;;;;;;;;;;;8.46;100.00;102123.09;5079257;28;19920;-79
2022/01/27 12:24:16;;;;;;;;;;;;;;;8.40;100.00;102117.41;5074772;28;19920;-79
2022/01/27 12:26:52;;;;;;;;;;;;;;;8.41;100.00;102111.34;5071306;28;19955;-79
2022/01/27 12:29:22;;;;;;;;;;;;;;;8.43;100.00;102110.66;5076000;28;19920;-79
2022/01/27 12:31:55;;;;;;;;;;;;;;;8.50;100.00;102116.31;5077527;28;19947;-79
2022/01/27 12:34:23;;;;;;;;;;;;;;;8.57;100.00;102118.53;5059332;28;19956;-78
2022/01/27 12:37:00;;;;;;;;;;;;;;;8.66;100.00;102108.63;5072710;28;20013;-79
2022/01/27 12:39:28;;;;;;;;;;;;;;;8.71;100.00;102115.06;5075074;28;20106;-79
2022/01/27 12:41:54;;;;;;;;;;;;;;;8.76;100.00;102105.78;5083270;28;19920;-80
2022/01/27 12:44:26;;;;;;;;;;;;;;;8.74;100.00;102124.88;5078307;28;19921;-80
2022/01/27 12:47:08;;;;;;;;;;;;;;;8.66;100.00;102127.00;5091608;28;19928;-79
2022/01/27 12:49:37;;;;;;;;;;;;;;;8.59;100.00;102125.72;5092125;28;20031;-79
2022/01/27 12:52:07;;;;;;;;;;;;;;;8.57;100.00;102122.06;5081219;28;19920;-79
2022/01/27 12:54:36;;;;;;;;;;;;;;;8.59;100.00;102120.44;5075436;28;19928;-80
2022/01/27 12:57:11;;;;;;;;;;;;;;;8.57;100.00;102129.03;5078012;28;19994;-79
2022/01/27 12:59:43;;;;;;;;;;;;;;;8.58;100.00;102125.59;5077875;28;19920;-79
2022/01/27 13:02:23;;;;;;;;;;;;;;;8.69;100.00;102121.03;5074506;28;19932;-79
2022/01/27 13:05:08;;;;;;;;;;;;;;;8.72;100.00;102116.00;5047866;28;19925;-79
2022/01/27 13:07:37;;;;;;;;;;;;;;;8.63;100.00;102114.56;5067549;28;19933;-81
2022/01/27 13:10:14;;;;;;;;;;;;;;;8.75;100.00;102124.06;5058731;28;19939;-79
2022/01/27 13:13:01;;;;;;;;;;;;;;;8.74;100.00;102133.63;5075972;28;19973;-79
2022/01/27 13:15:40;;;;;;;;;;;;;;;8.70;100.00;102129.03;5088032;28;19926;-79
2022/01/27 13:18:36;;;;;;;;;;;;;;;8.67;100.00;102130.53;5095489;28;19920;-79
2022/01/27 13:21:08;;;;;;;;;;;;;;;8.59;100.00;102125.72;5079737;28;19955;-79
2022/01/27 13:23:45;;;;;;;;;;;;;;;8.62;100.00;102136.41;5075088;28;20586;-79
2022/01/27 13:26:18;;;;;;;;;;;;;;;8.67;100.00;102133.16;5088591;28;19920;-79
2022/01/27 13:29:05;;;;;;;;;;;;;;;8.79;100.00;102140.13;5084062;28;19932;-79
2022/01/27 13:31:53;;;;;;;;;;;;;;;8.78;100.00;102140.91;5073949;28;19932;-79
2022/01/27 13:34:20;;;;;;;;;;;;;;;8.81;100.00;102148.09;5093336;28;19920;-78
2022/01/27 13:37:25;;;;;;;;;;;;;;;8.78;100.00;102147.91;5080880;28;19982;-78
2022/01/27 13:43:01;;;;;;;;;;;;;;;8.79;100.00;102173.34;5094529;28;19927;-79